sensor_id;sensor_type;location;lat;lon;timestamp;pressure;altitude;pressure_sealevel;temperature;humidity
23321;BME280;33376;51.306;4.752;2023-04-15T00:02:16;100987.81;;;8.34;100.00
23321;BME280;33376;51.306;4.752;2023-04-15T00:04:43;100993.09;;;8.34;100.00
23321;BME280;33376;51.306;4.752;2023-04-15T00:07:08;100987.28;;;8.26;100.00
23321;BME280;33376;51.306;4.752;2023-04-15T00:09:34;101007.03;;;8.16;100.00
23321;BME280;33376;51.306;4.752;2023-04-15T00:11:59;101010.75;;;8.12;100.00
23321;BME280;33376;51.306;4.752;2023-04-15T00:14:24;101015.16;;;8.11;100.00
23321;BME280;33376;51.306;4.752;2023-04-15T00:16:50;101015.41;;;8.27;100.00
23321;BME280;33376;51.306;4.752;2023-04-15T00:19:19;100997.06;;;8.44;100.00
23321;BME280;33376;51.306;4.752;2023-04-15T00:21:45;100987.72;;;8.55;100.00
23321;BME280;33376;51.306;4.752;2023-04-15T00:24:11;100980.94;;;8.50;100.00
23321;BME280;33376;51.306;4.752;2023-04-15T00:26:37;100978.75;;;8.59;100.00
23321;BME280;33376;51.306;4.752;2023-04-15T00:29:02;100961.34;;;8.74;100.00
23321;BME280;33376;51.306;4.752;2023-04-15T00:31:28;100951.44;;;8.79;100.00
23321;BME280;33376;51.306;4.752;2023-04-15T00:33:54;100946.81;;;8.82;100.00
23321;BME280;33376;51.306;4.752;2023-04-15T00:36:19;100941.13;;;8.92;100.00
23321;BME280;33376;51.306;4.752;2023-04-15T00:38:44;100935.50;;;8.80;100.00
23321;BME280;33376;51.306;4.752;2023-04-15T00:41:09;100936.47;;;8.78;100.00
23321;BME280;33376;51.306;4.752;2023-04-15T00:43:35;100950.84;;;8.72;100.00
23321;BME280;33376;51.306;4.752;2023-04-15T00:46:00;100960.41;;;8.75;100.00
23321;BME280;33376;51.306;4.752;2023-04-15T00:48:27;100958.69;;;8.74;100.00
23321;BME280;33376;51.306;4.752;2023-04-15T00:50:53;100969.00;;;8.80;100.00
23321;BME280;33376;51.306;4.752;2023-04-15T00:53:18;100964.72;;;8.77;100.00
23321;BME280;33376;51.306;4.752;2023-04-15T00:55:43;100957.41;;;8.82;100.00
23321;BME280;33376;51.306;4.752;2023-04-15T00:58:09;100975.16;;;8.80;100.00
23321;BME280;33376;51.306;4.752;2023-04-15T01:00:34;100968.06;;;8.81;100.00
23321;BME280;33376;51.306;4.752;2023-04-15T01:03:00;100976.91;;;8.80;100.00
23321;BME280;33376;51.306;4.752;2023-04-15T01:05:25;100968.41;;;8.92;100.00
23321;BME280;33376;51.306;4.752;2023-04-15T01:07:51;100949.78;;;8.95;100.00
23321;BME280;33376;51.306;4.752;2023-04-15T01:10:17;100963.13;;;8.92;100.00
23321;BME280;33376;51.306;4.752;2023-04-15T01:12:42;100956.00;;;8.94;100.00
23321;BME280;33376;51.306;4.752;2023-04-15T01:15:08;100945.13;;;9.00;100.00
23321;BME280;33376;51.306;4.752;2023-04-15T01:17:35;100944.28;;;9.00;100.00
23321;BME280;33376;51.306;4.752;2023-04-15T01:20:00;100935.03;;;9.08;100.00
23321;BME280;33376;51.306;4.752;2023-04-15T01:22:26;100933.19;;;9.10;100.00
23321;BME280;33376;51.306;4.752;2023-04-15T01:25:05;100917.66;;;9.21;100.00
23321;BME280;33376;51.306;4.752;2023-04-15T01:27:32;100909.66;;;9.23;100.00
23321;BME280;33376;51.306;4.752;2023-04-15T01:29:59;100918.97;;;9.13;100.00
23321;BME280;33376;51.306;4.752;2023-04-15T01:32:24;100943.06;;;9.07;100.00
23321;BME280;33376;51.306;4.752;2023-04-15T01:34:49;100980.06;;;9.07;100.00
23321;BME280;33376;51.306;4.752;2023-04-15T01:37:15;100997.03;;;9.03;100.00
23321;BME280;33376;51.306;4.752;2023-04-15T01:39:40;101026.38;;;8.58;100.00
23321;BME280;33376;51.306;4.752;2023-04-15T01:42:06;101058.59;;;8.46;100.00
23321;BME280;33376;51.306;4.752;2023-04-15T01:44:31;101021.63;;;8.66;100.00
23321;BME280;33376;51.306;4.752;2023-04-15T01:46:56;101015.91;;;8.75;100.00
23321;BME280;33376;51.306;4.752;2023-04-15T01:49:22;101012.53;;;8.71;100.00
23321;BME280;33376;51.306;4.752;2023-04-15T01:51:47;101045.97;;;8.52;100.00
23321;BME280;33376;51.306;4.752;2023-04-15T01:54:13;101074.31;;;8.29;100.00
23321;BME280;33376;51.306;4.752;2023-04-15T01:56:38;101059.75;;;8.40;100.00
23321;BME280;33376;51.306;4.752;2023-04-15T01:59:03;101063.88;;;8.46;100.00
23321;BME280;33376;51.306;4.752;2023-04-15T02:01:29;101066.78;;;8.40;100.00
23321;BME280;33376;51.306;4.752;2023-04-15T02:03:54;101067.53;;;8.43;100.00
23321;BME280;33376;51.306;4.752;2023-04-15T02:06:19;101073.16;;;8.36;100.00
23321;BME280;33376;51.306;4.752;2023-04-15T02:08:45;101064.63;;;8.49;100.00
23321;BME280;33376;51.306;4.752;2023-04-15T02:11:10;101062.78;;;8.51;100.00
23321;BME280;33376;51.306;4.752;2023-04-15T02:13:35;101049.88;;;8.64;100.00
23321;BME280;33376;51.306;4.752;2023-04-15T02:16:01;101068.13;;;8.50;100.00
23321;BME280;33376;51.306;4.752;2023-04-15T02:18:27;101062.03;;;8.48;100.00
23321;BME280;33376;51.306;4.752;2023-04-15T02:20:52;101068.06;;;8.51;100.00
23321;BME280;33376;51.306;4.752;2023-04-15T02:23:17;101054.44;;;8.60;100.00
23321;BME280;33376;51.306;4.752;2023-04-15T02:25:43;101048.25;;;8.61;100.00
23321;BME280;33376;51.306;4.752;2023-04-15T02:28:08;101033.94;;;8.85;100.00
23321;BME280;33376;51.306;4.752;2023-04-15T02:30:33;101015.63;;;8.81;100.00
23321;BME280;33376;51.306;4.752;2023-04-15T02:33:01;101016.00;;;8.92;100.00
23321;BME280;33376;51.306;4.752;2023-04-15T02:35:27;101052.25;;;8.70;100.00
23321;BME280;33376;51.306;4.752;2023-04-15T02:37:52;101062.38;;;8.60;100.00
23321;BME280;33376;51.306;4.752;2023-04-15T02:40:17;101056.03;;;8.64;100.00
23321;BME280;33376;51.306;4.752;2023-04-15T02:42:43;101040.72;;;8.72;100.00
23321;BME280;33376;51.306;4.752;2023-04-15T02:45:08;101040.22;;;8.83;100.00
23321;BME280;33376;51.306;4.752;2023-04-15T02:47:34;101046.53;;;8.80;100.00
23321;BME280;33376;51.306;4.752;2023-04-15T02:50:00;101047.22;;;8.84;100.00
23321;BME280;33376;51.306;4.752;2023-04-15T02:52:26;101050.72;;;8.84;100.00
23321;BME280;33376;51.306;4.752;2023-04-15T02:54:51;101054.97;;;8.88;100.00
23321;BME280;33376;51.306;4.752;2023-04-15T02:57:17;101036.78;;;9.20;100.00
23321;BME280;33376;51.306;4.752;2023-04-15T02:59:43;101045.63;;;9.00;100.00
23321;BME280;33376;51.306;4.752;2023-04-15T03:02:08;101056.13;;;9.02;100.00
23321;BME280;33376;51.306;4.752;2023-04-15T03:04:33;101057.34;;;8.95;100.00
23321;BME280;33376;51.306;4.752;2023-04-15T03:06:59;101076.19;;;8.87;100.00
23321;BME280;33376;51.306;4.752;2023-04-15T03:09:25;101096.09;;;8.75;100.00
23321;BME280;33376;51.306;4.752;2023-04-15T03:11:50;101099.63;;;8.74;100.00
23321;BME280;33376;51.306;4.752;2023-04-15T03:14:17;101114.97;;;8.66;100.00
23321;BME280;33376;51.306;4.752;2023-04-15T03:16:42;101121.19;;;8.65;100.00
23321;BME280;33376;51.306;4.752;2023-04-15T03:19:07;101128.13;;;8.68;100.00
23321;BME280;33376;51.306;4.752;2023-04-15T03:21:33;101115.88;;;8.87;100.00
23321;BME280;33376;51.306;4.752;2023-04-15T03:23:58;101128.81;;;8.93;100.00
23321;BME280;33376;51.306;4.752;2023-04-15T03:26:26;101142.88;;;8.93;100.00
23321;BME280;33376;51.306;4.752;2023-04-15T03:28:51;101141.09;;;8.94;100.00
23321;BME280;33376;51.306;4.752;2023-04-15T03:31:16;101148.34;;;8.89;100.00
23321;BME280;33376;51.306;4.752;2023-04-15T03:33:41;101156.50;;;8.84;100.00
23321;BME280;33376;51.306;4.752;2023-04-15T03:36:07;101160.06;;;8.83;100.00
23321;BME280;33376;51.306;4.752;2023-04-15T03:38:34;101154.91;;;8.80;100.00
23321;BME280;33376;51.306;4.752;2023-04-15T03:41:02;101145.91;;;8.84;100.00
23321;BME280;33376;51.306;4.752;2023-04-15T03:43:28;101163.81;;;8.58;100.00
23321;BME280;33376;51.306;4.752;2023-04-15T03:45:57;101160.50;;;8.73;100.00
23321;BME280;33376;51.306;4.752;2023-04-15T03:48:22;101167.53;;;8.52;100.00
23321;BME280;33376;51.306;4.752;2023-04-15T03:50:47;101178.78;;;8.57;100.00
23321;BME280;33376;51.306;4.752;2023-04-15T03:53:12;101180.63;;;8.55;100.00
23321;BME280;33376;51.306;4.752;2023-04-15T03:55:38;101167.47;;;8.75;100.00
23321;BME280;33376;51.306;4.752;2023-04-15T03:58:06;101167.28;;;8.80;100.00
23321;BME280;33376;51.306;4.752;2023-04-15T04:00:37;101162.44;;;8.89;100.00
23321;BME280;33376;51.306;4.752;2023-04-15T04:03:02;101171.38;;;8.87;100.00
23321;BME280;33376;51.306;4.752;2023-04-15T04:05:28;101186.50;;;8.83;100.00
23321;BME280;33376;51.306;4.752;2023-04-15T04:07:53;101189.81;;;8.88;100.00
23321;BME280;33376;51.306;4.752;2023-04-15T04:10:18;101188.16;;;8.86;100.00
23321;BME280;33376;51.306;4.752;2023-04-15T04:12:44;101174.59;;;8.93;100.00
23321;BME280;33376;51.306;4.752;2023-04-15T04:15:09;101177.38;;;8.90;100.00
23321;BME280;33376;51.306;4.752;2023-04-15T04:17:34;101169.75;;;9.05;100.00
23321;BME280;33376;51.306;4.752;2023-04-15T04:20:00;101172.75;;;8.96;100.00
23321;BME280;33376;51.306;4.752;2023-04-15T04:22:25;101170.72;;;9.02;100.00
23321;BME280;33376;51.306;4.752;2023-04-15T04:24:50;101170.03;;;8.97;100.00
23321;BME280;33376;51.306;4.752;2023-04-15T04:27:15;101177.97;;;8.97;100.00
23321;BME280;33376;51.306;4.752;2023-04-15T04:29:41;101180.03;;;8.90;100.00
23321;BME280;33376;51.306;4.752;2023-04-15T04:32:06;101191.75;;;8.85;100.00
23321;BME280;33376;51.306;4.752;2023-04-15T04:34:31;101198.78;;;8.84;100.00
23321;BME280;33376;51.306;4.752;2023-04-15T04:36:56;101200.97;;;8.75;100.00
23321;BME280;33376;51.306;4.752;2023-04-15T04:39:22;101191.75;;;8.85;100.00
23321;BME280;33376;51.306;4.752;2023-04-15T04:41:47;101195.94;;;8.89;100.00
23321;BME280;33376;51.306;4.752;2023-04-15T04:44:12;101200.28;;;8.92;100.00
23321;BME280;33376;51.306;4.752;2023-04-15T04:46:38;101213.63;;;8.88;100.00
23321;BME280;33376;51.306;4.752;2023-04-15T04:49:03;101210.44;;;8.80;100.00
23321;BME280;33376;51.306;4.752;2023-04-15T04:51:28;101214.91;;;8.78;100.00
23321;BME280;33376;51.306;4.752;2023-04-15T04:53:53;101204.09;;;8.84;100.00
23321;BME280;33376;51.306;4.752;2023-04-15T04:56:19;101195.88;;;8.90;100.00
23321;BME280;33376;51.306;4.752;2023-04-15T04:58:44;101191.94;;;8.80;100.00
23321;BME280;33376;51.306;4.752;2023-04-15T05:01:09;101191.94;;;8.80;100.00
23321;BME280;33376;51.306;4.752;2023-04-15T05:03:35;101193.38;;;8.87;100.00
23321;BME280;33376;51.306;4.752;2023-04-15T05:06:00;101195.88;;;8.90;100.00
23321;BME280;33376;51.306;4.752;2023-04-15T05:08:27;101190.94;;;9.03;100.00
23321;BME280;33376;51.306;4.752;2023-04-15T05:10:52;101183.97;;;9.22;100.00
23321;BME280;33376;51.306;4.752;2023-04-15T05:13:17;101170.06;;;9.17;100.00
23321;BME280;33376;51.306;4.752;2023-04-15T05:15:42;101174.50;;;9.17;100.00
23321;BME280;33376;51.306;4.752;2023-04-15T05:18:08;101177.34;;;9.12;100.00
23321;BME280;33376;51.306;4.752;2023-04-15T05:20:34;101188.34;;;9.02;100.00
23321;BME280;33376;51.306;4.752;2023-04-15T05:22:59;101179.31;;;9.07;100.00
23321;BME280;33376;51.306;4.752;2023-04-15T05:25:25;101178.59;;;9.24;100.00
23321;BME280;33376;51.306;4.752;2023-04-15T05:27:51;101184.78;;;9.23;100.00
23321;BME280;33376;51.306;4.752;2023-04-15T05:30:16;101182.22;;;9.41;100.00
23321;BME280;33376;51.306;4.752;2023-04-15T05:32:41;101178.41;;;9.47;100.00
23321;BME280;33376;51.306;4.752;2023-04-15T05:35:06;101185.63;;;9.43;100.00
23321;BME280;33376;51.306;4.752;2023-04-15T05:37:32;101190.25;;;9.58;100.00
23321;BME280;33376;51.306;4.752;2023-04-15T05:39:57;101206.16;;;9.77;100.00
23321;BME280;33376;51.306;4.752;2023-04-15T05:42:23;101186.34;;;9.85;100.00
23321;BME280;33376;51.306;4.752;2023-04-15T05:44:48;101177.97;;;9.76;100.00
23321;BME280;33376;51.306;4.752;2023-04-15T05:47:13;101206.72;;;9.45;100.00
23321;BME280;33376;51.306;4.752;2023-04-15T05:49:38;101197.69;;;9.69;100.00
23321;BME280;33376;51.306;4.752;2023-04-15T05:52:03;101219.50;;;9.55;100.00
23321;BME280;33376;51.306;4.752;2023-04-15T05:54:29;101232.38;;;9.44;100.00
23321;BME280;33376;51.306;4.752;2023-04-15T05:56:54;101233.94;;;9.48;100.00
23321;BME280;33376;51.306;4.752;2023-04-15T05:59:21;101242.81;;;9.47;100.00
23321;BME280;33376;51.306;4.752;2023-04-15T06:01:46;101253.19;;;9.52;100.00
23321;BME280;33376;51.306;4.752;2023-04-15T06:04:12;101262.50;;;9.80;100.00
23321;BME280;33376;51.306;4.752;2023-04-15T06:06:37;101260.38;;;10.07;100.00
23321;BME280;33376;51.306;4.752;2023-04-15T06:09:02;101250.59;;;10.09;100.00
23321;BME280;33376;51.306;4.752;2023-04-15T06:11:28;101245.44;;;10.24;100.00
23321;BME280;33376;51.306;4.752;2023-04-15T06:13:53;101246.38;;;10.42;100.00
23321;BME280;33376;51.306;4.752;2023-04-15T06:16:18;101227.47;;;10.50;100.00
23321;BME280;33376;51.306;4.752;2023-04-15T06:18:43;101226.00;;;10.61;100.00
23321;BME280;33376;51.306;4.752;2023-04-15T06:21:09;101217.22;;;10.78;100.00
23321;BME280;33376;51.306;4.752;2023-04-15T06:23:34;101203.31;;;10.73;100.00
23321;BME280;33376;51.306;4.752;2023-04-15T06:26:05;101204.69;;;10.98;100.00
23321;BME280;33376;51.306;4.752;2023-04-15T06:28:30;101204.38;;;11.21;100.00
23321;BME280;33376;51.306;4.752;2023-04-15T06:30:55;101211.19;;;11.42;100.00
23321;BME280;33376;51.306;4.752;2023-04-15T06:33:20;101197.78;;;11.28;100.00
23321;BME280;33376;51.306;4.752;2023-04-15T06:35:46;101192.97;;;11.19;100.00
23321;BME280;33376;51.306;4.752;2023-04-15T06:38:12;101187.88;;;11.32;100.00
23321;BME280;33376;51.306;4.752;2023-04-15T06:40:38;101180.00;;;11.80;100.00
23321;BME280;33376;51.306;4.752;2023-04-15T06:43:03;101109.75;;;12.46;100.00
23321;BME280;33376;51.306;4.752;2023-04-15T06:45:29;101088.00;;;12.69;100.00
23321;BME280;33376;51.306;4.752;2023-04-15T06:47:54;101048.00;;;12.99;100.00
23321;BME280;33376;51.306;4.752;2023-04-15T06:50:19;101001.19;;;13.10;100.00
23321;BME280;33376;51.306;4.752;2023-04-15T06:52:44;100968.38;;;13.24;100.00
23321;BME280;33376;51.306;4.752;2023-04-15T06:55:10;100957.44;;;13.55;100.00
23321;BME280;33376;51.306;4.752;2023-04-15T06:57:35;100965.69;;;13.38;100.00
23321;BME280;33376;51.306;4.752;2023-04-15T07:00:00;100928.09;;;13.69;100.00
23321;BME280;33376;51.306;4.752;2023-04-15T07:02:26;100912.22;;;14.19;100.00
23321;BME280;33376;51.306;4.752;2023-04-15T07:04:51;100885.03;;;14.90;100.00
23321;BME280;33376;51.306;4.752;2023-04-15T07:07:16;100858.38;;;14.52;100.00
23321;BME280;33376;51.306;4.752;2023-04-15T07:09:42;100847.72;;;14.27;100.00
23321;BME280;33376;51.306;4.752;2023-04-15T07:12:07;100845.69;;;15.04;100.00
23321;BME280;33376;51.306;4.752;2023-04-15T07:14:32;100819.13;;;14.90;100.00
23321;BME280;33376;51.306;4.752;2023-04-15T07:16:57;100841.09;;;15.30;100.00
23321;BME280;33376;51.306;4.752;2023-04-15T07:19:23;100851.25;;;15.01;100.00
23321;BME280;33376;51.306;4.752;2023-04-15T07:21:48;100860.31;;;14.99;100.00
23321;BME280;33376;51.306;4.752;2023-04-15T07:24:13;100839.06;;;14.97;100.00
23321;BME280;33376;51.306;4.752;2023-04-15T07:26:42;100853.84;;;14.78;100.00
23321;BME280;33376;51.306;4.752;2023-04-15T07:29:08;100808.06;;;15.31;100.00
23321;BME280;33376;51.306;4.752;2023-04-15T07:31:33;100833.69;;;15.46;100.00
23321;BME280;33376;51.306;4.752;2023-04-15T07:33:59;100811.28;;;15.70;100.00
23321;BME280;33376;51.306;4.752;2023-04-15T07:36:24;100817.59;;;15.69;100.00
23321;BME280;33376;51.306;4.752;2023-04-15T07:38:49;100840.88;;;15.56;100.00
23321;BME280;33376;51.306;4.752;2023-04-15T07:41:14;100834.91;;;15.53;100.00
23321;BME280;33376;51.306;4.752;2023-04-15T07:43:40;100863.50;;;15.04;100.00
23321;BME280;33376;51.306;4.752;2023-04-15T07:46:05;100887.13;;;14.97;100.00
23321;BME280;33376;51.306;4.752;2023-04-15T07:48:30;100924.56;;;14.72;100.00
23321;BME280;33376;51.306;4.752;2023-04-15T07:50:56;100902.69;;;14.54;100.00
23321;BME280;33376;51.306;4.752;2023-04-15T07:53:21;100946.78;;;14.73;100.00
23321;BME280;33376;51.306;4.752;2023-04-15T07:55:46;100913.16;;;15.55;100.00
23321;BME280;33376;51.306;4.752;2023-04-15T07:58:11;100899.41;;;14.87;100.00
23321;BME280;33376;51.306;4.752;2023-04-15T08:00:36;100900.84;;;15.16;100.00
23321;BME280;33376;51.306;4.752;2023-04-15T08:03:02;100954.19;;;15.05;100.00
23321;BME280;33376;51.306;4.752;2023-04-15T08:05:27;100987.09;;;15.06;100.00
23321;BME280;33376;51.306;4.752;2023-04-15T08:07:53;100994.22;;;15.18;100.00
23321;BME280;33376;51.306;4.752;2023-04-15T08:10:18;100983.09;;;15.36;100.00
23321;BME280;33376;51.306;4.752;2023-04-15T08:12:44;100969.84;;;15.47;100.00
23321;BME280;33376;51.306;4.752;2023-04-15T08:15:13;100929.47;;;15.27;100.00
23321;BME280;33376;51.306;4.752;2023-04-15T08:17:38;100932.16;;;15.63;100.00
23321;BME280;33376;51.306;4.752;2023-04-15T08:20:03;100903.56;;;15.52;100.00
23321;BME280;33376;51.306;4.752;2023-04-15T08:22:29;100919.66;;;15.63;100.00
23321;BME280;33376;51.306;4.752;2023-04-15T08:24:55;100931.75;;;15.56;100.00
23321;BME280;33376;51.306;4.752;2023-04-15T08:27:20;100933.06;;;14.90;100.00
23321;BME280;33376;51.306;4.752;2023-04-15T08:29:46;100982.06;;;15.14;100.00
23321;BME280;33376;51.306;4.752;2023-04-15T08:32:11;101013.50;;;14.73;100.00
23321;BME280;33376;51.306;4.752;2023-04-15T08:34:36;101002.91;;;14.96;100.00
23321;BME280;33376;51.306;4.752;2023-04-15T08:37:01;101028.41;;;15.50;100.00
23321;BME280;33376;51.306;4.752;2023-04-15T08:39:27;100981.00;;;15.88;100.00
23321;BME280;33376;51.306;4.752;2023-04-15T08:42:00;100967.47;;;16.02;100.00
23321;BME280;33376;51.306;4.752;2023-04-15T08:44:27;100942.31;;;16.05;100.00
23321;BME280;33376;51.306;4.752;2023-04-15T08:46:53;100958.22;;;15.95;100.00
23321;BME280;33376;51.306;4.752;2023-04-15T08:49:21;100903.13;;;15.93;100.00
23321;BME280;33376;51.306;4.752;2023-04-15T08:51:49;100974.50;;;15.56;100.00
23321;BME280;33376;51.306;4.752;2023-04-15T08:54:14;100964.38;;;15.96;100.00
23321;BME280;33376;51.306;4.752;2023-04-15T08:56:39;100956.84;;;15.90;100.00
23321;BME280;33376;51.306;4.752;2023-04-15T08:59:05;100943.28;;;16.04;100.00
23321;BME280;33376;51.306;4.752;2023-04-15T09:01:31;100962.13;;;15.55;100.00
23321;BME280;33376;51.306;4.752;2023-04-15T09:03:56;100990.38;;;15.94;100.00
23321;BME280;33376;51.306;4.752;2023-04-15T09:06:23;101026.41;;;15.77;100.00
23321;BME280;33376;51.306;4.752;2023-04-15T09:08:51;101045.50;;;15.60;100.00
23321;BME280;33376;51.306;4.752;2023-04-15T09:11:17;101012.22;;;15.16;100.00
23321;BME280;33376;51.306;4.752;2023-04-15T09:13:43;101081.81;;;14.75;100.00
23321;BME280;33376;51.306;4.752;2023-04-15T09:16:08;101075.28;;;14.79;100.00
23321;BME280;33376;51.306;4.752;2023-04-15T09:18:34;101090.56;;;14.38;100.00
23321;BME280;33376;51.306;4.752;2023-04-15T09:21:07;101132.38;;;14.51;100.00
23321;BME280;33376;51.306;4.752;2023-04-15T09:23:33;101073.38;;;14.81;100.00
23321;BME280;33376;51.306;4.752;2023-04-15T09:25:58;101081.94;;;14.86;100.00
23321;BME280;33376;51.306;4.752;2023-04-15T09:28:24;101121.06;;;15.00;100.00
23321;BME280;33376;51.306;4.752;2023-04-15T09:30:56;101107.03;;;14.84;100.00
23321;BME280;33376;51.306;4.752;2023-04-15T09:33:22;101071.25;;;14.86;100.00
23321;BME280;33376;51.306;4.752;2023-04-15T09:38:22;101103.28;;;14.86;100.00
23321;BME280;33376;51.306;4.752;2023-04-15T09:40:47;101017.44;;;14.92;100.00
23321;BME280;33376;51.306;4.752;2023-04-15T09:43:12;101022.88;;;14.91;100.00
23321;BME280;33376;51.306;4.752;2023-04-15T09:45:38;101076.94;;;14.94;100.00
23321;BME280;33376;51.306;4.752;2023-04-15T09:48:20;101044.78;;;14.96;100.00
23321;BME280;33376;51.306;4.752;2023-04-15T09:50:45;100993.28;;;14.94;100.00
23321;BME280;33376;51.306;4.752;2023-04-15T09:53:19;101023.63;;;14.55;100.00
23321;BME280;33376;51.306;4.752;2023-04-15T09:55:49;101031.22;;;14.74;100.00
23321;BME280;33376;51.306;4.752;2023-04-15T09:58:18;101047.34;;;15.10;100.00
23321;BME280;33376;51.306;4.752;2023-04-15T10:00:45;100943.59;;;15.16;100.00
23321;BME280;33376;51.306;4.752;2023-04-15T10:03:11;100890.75;;;15.09;100.00
23321;BME280;33376;51.306;4.752;2023-04-15T10:05:36;100869.22;;;14.87;100.00
23321;BME280;33376;51.306;4.752;2023-04-15T10:08:02;100877.44;;;15.20;100.00
23321;BME280;33376;51.306;4.752;2023-04-15T10:10:28;100929.50;;;15.02;100.00
23321;BME280;33376;51.306;4.752;2023-04-15T10:12:53;101015.59;;;15.18;100.00
23321;BME280;33376;51.306;4.752;2023-04-15T10:15:19;100961.03;;;15.09;100.00
23321;BME280;33376;51.306;4.752;2023-04-15T10:17:45;100933.53;;;15.20;100.00
23321;BME280;33376;51.306;4.752;2023-04-15T10:20:11;100822.94;;;15.22;100.00
23321;BME280;33376;51.306;4.752;2023-04-15T10:22:38;100736.53;;;15.00;100.00
23321;BME280;33376;51.306;4.752;2023-04-15T10:25:05;100741.47;;;15.17;100.00
23321;BME280;33376;51.306;4.752;2023-04-15T10:27:31;100733.75;;;15.36;100.00
23321;BME280;33376;51.306;4.752;2023-04-15T10:29:58;100731.28;;;15.22;100.00
23321;BME280;33376;51.306;4.752;2023-04-15T10:32:24;100748.47;;;15.65;100.00
23321;BME280;33376;51.306;4.752;2023-04-15T10:34:50;100685.50;;;15.72;100.00
23321;BME280;33376;51.306;4.752;2023-04-15T10:37:32;100706.31;;;15.34;100.00
23321;BME280;33376;51.306;4.752;2023-04-15T10:39:57;100910.75;;;15.39;100.00
23321;BME280;33376;51.306;4.752;2023-04-15T10:42:23;100909.63;;;15.18;100.00
23321;BME280;33376;51.306;4.752;2023-04-15T10:44:49;100944.63;;;15.39;100.00
23321;BME280;33376;51.306;4.752;2023-04-15T10:47:18;100940.88;;;15.29;100.00
23321;BME280;33376;51.306;4.752;2023-04-15T10:49:48;100841.97;;;15.54;100.00
23321;BME280;33376;51.306;4.752;2023-04-15T10:52:15;100808.19;;;15.87;100.00
23321;BME280;33376;51.306;4.752;2023-04-15T10:54:41;100705.97;;;16.06;100.00
23321;BME280;33376;51.306;4.752;2023-04-15T10:57:07;100687.13;;;16.07;100.00
23321;BME280;33376;51.306;4.752;2023-04-15T10:59:37;100747.25;;;15.80;100.00
23321;BME280;33376;51.306;4.752;2023-04-15T11:02:03;100848.13;;;16.24;100.00
23321;BME280;33376;51.306;4.752;2023-04-15T11:07:13;100820.72;;;15.98;100.00
23321;BME280;33376;51.306;4.752;2023-04-15T11:09:39;100707.19;;;16.13;100.00
23321;BME280;33376;51.306;4.752;2023-04-15T11:12:05;100629.78;;;16.54;100.00
23321;BME280;33376;51.306;4.752;2023-04-15T11:14:38;100638.06;;;16.51;100.00
23321;BME280;33376;51.306;4.752;2023-04-15T11:17:04;100586.66;;;17.09;100.00
23321;BME280;33376;51.306;4.752;2023-04-15T11:19:36;100588.53;;;16.77;100.00
23321;BME280;33376;51.306;4.752;2023-04-15T11:22:06;100623.47;;;16.76;100.00
23321;BME280;33376;51.306;4.752;2023-04-15T11:24:31;100531.56;;;16.86;100.00
23321;BME280;33376;51.306;4.752;2023-04-15T11:26:56;100568.44;;;17.24;100.00
23321;BME280;33376;51.306;4.752;2023-04-15T11:29:27;100545.38;;;17.63;100.00
23321;BME280;33376;51.306;4.752;2023-04-15T11:31:52;100553.56;;;17.10;100.00
23321;BME280;33376;51.306;4.752;2023-04-15T11:34:26;100601.38;;;17.15;100.00
23321;BME280;33376;51.306;4.752;2023-04-15T11:36:52;100628.03;;;17.16;100.00
23321;BME280;33376;51.306;4.752;2023-04-15T11:39:21;100593.47;;;17.13;100.00
23321;BME280;33376;51.306;4.752;2023-04-15T11:41:46;100762.63;;;17.20;100.00
23321;BME280;33376;51.306;4.752;2023-04-15T11:44:15;100708.78;;;16.80;100.00
23321;BME280;33376;51.306;4.752;2023-04-15T11:46:41;100820.19;;;17.25;100.00
23321;BME280;33376;51.306;4.752;2023-04-15T11:49:07;100621.28;;;17.22;100.00
23321;BME280;33376;51.306;4.752;2023-04-15T11:51:32;100610.69;;;17.62;100.00
23321;BME280;33376;51.306;4.752;2023-04-15T11:53:58;100723.22;;;17.52;100.00
23321;BME280;33376;51.306;4.752;2023-04-15T11:56:24;100557.88;;;17.02;100.00
23321;BME280;33376;51.306;4.752;2023-04-15T11:58:54;100659.00;;;17.09;100.00
23321;BME280;33376;51.306;4.752;2023-04-15T12:01:29;100674.72;;;17.03;100.00
23321;BME280;33376;51.306;4.752;2023-04-15T12:03:54;100842.56;;;16.93;100.00
23321;BME280;33376;51.306;4.752;2023-04-15T12:06:24;100816.50;;;16.84;100.00
23321;BME280;33376;51.306;4.752;2023-04-15T12:11:26;100805.31;;;16.79;100.00
23321;BME280;33376;51.306;4.752;2023-04-15T12:13:56;100648.81;;;17.03;100.00
23321;BME280;33376;51.306;4.752;2023-04-15T12:16:22;100617.91;;;16.25;100.00
23321;BME280;33376;51.306;4.752;2023-04-15T12:18:51;100703.88;;;16.54;100.00
23321;BME280;33376;51.306;4.752;2023-04-15T12:21:23;100703.25;;;16.61;100.00
23321;BME280;33376;51.306;4.752;2023-04-15T12:23:50;100748.28;;;16.45;100.00
23321;BME280;33376;51.306;4.752;2023-04-15T12:26:16;100761.88;;;16.86;100.00
23321;BME280;33376;51.306;4.752;2023-04-15T12:28:42;100811.75;;;17.30;100.00
23321;BME280;33376;51.306;4.752;2023-04-15T12:31:10;100780.75;;;17.16;100.00
23321;BME280;33376;51.306;4.752;2023-04-15T12:33:37;100828.59;;;16.78;100.00
23321;BME280;33376;51.306;4.752;2023-04-15T12:36:02;100837.06;;;16.39;100.00
23321;BME280;33376;51.306;4.752;2023-04-15T12:38:28;100916.91;;;16.56;100.00
23321;BME280;33376;51.306;4.752;2023-04-15T12:40:53;100910.19;;;16.40;100.00
23321;BME280;33376;51.306;4.752;2023-04-15T12:43:19;100877.38;;;16.49;100.00
23321;BME280;33376;51.306;4.752;2023-04-15T12:45:44;100879.50;;;16.44;100.00
23321;BME280;33376;51.306;4.752;2023-04-15T12:48:09;100806.94;;;16.48;100.00